Hauptseite
METAR-TAF:

METAR-TAF

Flughäfen :

Flughafen Antananarivo

Antananarivo, Madagaskar

Breite: 18-48S, Länge: 047-29E, Höhe: 1279 m

Beobachtung

Neuester Wetterbericht von vor 23 Minuten, um 08:30 UTC
Wind 11 kt aus Ost/Südost, variierte zwischen Ost/Nordost und Südost
Temperatur 20°C
Luftfeuchtigkeit 46%
Luftdruck 1027 hPa
Sichtweite 10 km oder mehr
Leicht bewölkt in der Höhe von 2000 ft

METAR: FMMI 170830Z 11011KT 060V140 9999 FEW020 20/08 Q1027 NOSIG

Zeit: 11:53 (08:53 UTC)

Prognose

Neuester Wetterbericht von vor 3 Stunden und 53 Minuten, um 05:00 UTC
Gültige Prognose vom 17 um 06 UTC bis 18 um 12 UTC
Wind 8 kt aus Ost
Sichtweite 10 km oder mehr
Leicht bewölkt in der Höhe von 2000 ft
Wahrscheinlichkeit 30%
vom 18 um 00 UTC bis 18 um 04 UTC
Durchbrochene Bewölkung in der Höhe von 600 ft

TAF: FMMI 170500Z 1706/1812 10008KT 9999 FEW020 PROB30 1800/1804 BKN006

Wetterbeobachtungen und Prognosen von mehr als 4000 Flughäfen (METAR und TAF Bericht).

Die verfügbaren Stationen werden durch gelbe und rote Markierungen auf der Karte dargestellt.

Führen Sie die Maus auf sie, um den Namen der Station zu sehen.

Darauf klicken, um die Beobachtung von Wetterbeobachtungen und Prognosen zu sehen.

Um die Karte zu ändern : klicken Sie auf den grünen Tasten mit einem schwarzen Kreuz Zum Vergrößern, auf den grünen Button mit einem Gedankenstrich zu verkleinern, oder auf die grünen Pfeile für benachbarte Karten.


METAR-TAF: